Time;durP1;ratioP1;P1;durP2;ratioP2;P2;SDS_P1;SDS_P2;PMS_P1;PMS_P2;Temp;Humidity;BMP_temperature;BMP_pressure;BME280_temperature;BME280_humidity;BME280_pressure;Samples;Min_cycle;Max_cycle;Signal;HPM_P1;HPM_P2
2021/03/13 00:00:34;;;;;;;49.35;25.30;;;1.00;99.90;;;;;;6179552;23;20020;-61
2021/03/13 00:03:08;;;;;;;48.92;26.00;;;1.00;99.90;;;;;;6184531;23;20343;-62
2021/03/13 00:05:39;;;;;;;49.03;26.58;;;1.00;99.90;;;;;;6181126;23;20017;-61
2021/03/13 00:08:06;;;;;;;50.63;27.88;;;1.10;99.90;;;;;;6182573;23;20029;-61
2021/03/13 00:10:34;;;;;;;49.40;25.23;;;1.10;99.90;;;;;;6181346;23;20696;-62
2021/03/13 00:13:01;;;;;;;47.13;25.25;;;1.00;99.90;;;;;;6181342;23;20021;-61
2021/03/13 00:15:27;;;;;;;52.25;26.60;;;1.00;99.90;;;;;;6183997;23;20025;-61
2021/03/13 00:17:56;;;;;;;46.28;26.60;;;1.00;99.90;;;;;;6182175;23;20049;-61
2021/03/13 00:20:25;;;;;;;46.85;26.52;;;0.90;99.90;;;;;;6180860;23;20060;-62
2021/03/13 00:22:54;;;;;;;54.33;26.95;;;1.00;99.90;;;;;;6184787;23;20481;-61
2021/03/13 00:25:21;;;;;;;46.97;26.23;;;0.90;99.90;;;;;;6183678;23;20021;-61
2021/03/13 00:27:48;;;;;;;51.75;28.00;;;0.90;99.90;;;;;;6181055;23;20087;-62
2021/03/13 00:30:20;;;;;;;54.85;29.23;;;0.80;99.90;;;;;;6180718;23;20028;-62
2021/03/13 00:32:49;;;;;;;46.38;26.52;;;0.70;99.90;;;;;;6184646;23;20021;-61
2021/03/13 00:35:16;;;;;;;51.25;27.25;;;0.70;99.90;;;;;;6180679;23;20056;-61
2021/03/13 00:37:42;;;;;;;53.20;27.40;;;0.70;99.90;;;;;;6182238;23;20108;-61
2021/03/13 00:40:11;;;;;;;48.47;27.42;;;0.70;99.90;;;;;;6180758;23;20021;-61
2021/03/13 00:42:38;;;;;;;46.70;25.45;;;0.70;99.90;;;;;;6181291;23;20017;-61
2021/03/13 00:45:05;;;;;;;51.85;25.45;;;0.70;99.90;;;;;;6182267;23;20044;-61
2021/03/13 00:47:31;;;;;;;56.95;27.67;;;0.60;99.90;;;;;;6180840;23;20024;-61
2021/03/13 00:49:57;;;;;;;50.53;27.52;;;0.60;99.90;;;;;;6180551;23;20111;-61
2021/03/13 00:52:23;;;;;;;49.95;26.58;;;0.60;99.90;;;;;;6184559;23;20025;-61
2021/03/13 00:54:49;;;;;;;39.78;24.50;;;0.60;99.90;;;;;;6182579;23;20045;-61
2021/03/13 00:57:15;;;;;;;44.58;26.80;;;0.60;99.90;;;;;;6178808;23;20044;-61
2021/03/13 00:59:42;;;;;;;54.40;27.27;;;0.70;99.90;;;;;;6180069;23;20021;-61
2021/03/13 01:02:08;;;;;;;51.83;25.60;;;0.70;99.90;;;;;;6177246;23;20021;-62
2021/03/13 01:04:35;;;;;;;49.67;27.85;;;0.70;99.90;;;;;;6178998;23;20049;-61
2021/03/13 01:07:01;;;;;;;51.70;27.33;;;0.80;99.90;;;;;;6179763;23;20025;-61
2021/03/13 01:09:27;;;;;;;49.83;27.08;;;0.70;99.90;;;;;;6179184;23;20023;-61
2021/03/13 01:11:55;;;;;;;49.70;26.38;;;0.80;99.90;;;;;;6178556;23;20388;-61
2021/03/13 01:14:22;;;;;;;52.80;27.50;;;0.70;99.90;;;;;;6183946;23;20020;-61
2021/03/13 01:16:49;;;;;;;54.28;28.65;;;0.70;99.90;;;;;;6203968;23;20017;-61
2021/03/13 01:19:16;;;;;;;52.30;28.20;;;0.70;99.90;;;;;;6180458;23;20056;-61
2021/03/13 01:21:42;;;;;;;54.50;28.05;;;0.70;99.90;;;;;;6180396;23;20029;-62
2021/03/13 01:24:11;;;;;;;59.20;28.75;;;0.70;99.90;;;;;;6180189;23;20398;-61
2021/03/13 01:26:40;;;;;;;63.03;29.83;;;0.70;99.90;;;;;;6178741;23;20048;-61
2021/03/13 01:29:09;;;;;;;60.00;29.98;;;0.70;99.90;;;;;;6179131;23;20092;-61
2021/03/13 01:31:40;;;;;;;52.30;27.75;;;0.70;99.90;;;;;;6178772;23;20049;-61
2021/03/13 01:34:06;;;;;;;55.10;29.48;;;0.70;99.90;;;;;;6180184;23;20531;-61
2021/03/13 01:36:36;;;;;;;54.42;29.08;;;0.70;99.90;;;;;;6180072;23;20024;-62
2021/03/13 01:39:04;;;;;;;55.03;28.40;;;0.70;99.90;;;;;;6178612;23;20101;-61
2021/03/13 01:41:31;;;;;;;59.53;29.98;;;0.60;99.90;;;;;;6178551;23;20052;-61
2021/03/13 01:43:57;;;;;;;53.80;26.83;;;0.60;99.90;;;;;;6184022;23;20057;-61
2021/03/13 01:46:26;;;;;;;53.33;28.15;;;0.60;99.90;;;;;;6181038;23;20402;-61
2021/03/13 01:48:53;;;;;;;54.65;28.25;;;0.50;99.90;;;;;;6179863;23;20407;-61
2021/03/13 01:51:23;;;;;;;52.53;27.65;;;0.50;99.90;;;;;;6154295;23;20048;-61
2021/03/13 01:53:54;;;;;;;51.67;27.02;;;0.50;99.90;;;;;;6181663;23;20592;-61
2021/03/13 01:56:24;;;;;;;54.90;27.30;;;0.40;99.90;;;;;;6178273;23;20051;-61
2021/03/13 01:58:54;;;;;;;58.00;29.40;;;0.40;99.90;;;;;;6178531;23;20518;-62
2021/03/13 02:01:30;;;;;;;59.75;28.58;;;0.40;99.90;;;;;;6203610;23;20497;-61
2021/03/13 02:03:58;;;;;;;53.65;29.70;;;0.50;99.90;;;;;;6182493;23;20370;-61
2021/03/13 02:06:24;;;;;;;56.33;28.17;;;0.40;99.90;;;;;;6179805;23;20458;-61
2021/03/13 02:09:19;;;;;;;50.47;27.75;;;0.40;99.90;;;;;;6179818;23;20097;-61
2021/03/13 02:11:54;;;;;;;55.88;29.27;;;0.40;99.90;;;;;;6171246;23;20366;-61
2021/03/13 02:14:33;;;;;;;58.20;27.85;;;0.40;99.90;;;;;;6178031;23;20580;-61
2021/03/13 02:17:40;;;;;;;55.63;29.58;;;0.40;99.90;;;;;;6180746;23;20024;-61
2021/03/13 02:20:13;;;;;;;51.10;27.42;;;0.40;99.90;;;;;;6178209;23;20044;-61
2021/03/13 02:22:42;;;;;;;52.15;27.65;;;0.30;99.90;;;;;;6180151;23;20115;-61
2021/03/13 02:26:11;;;;;;;48.33;25.52;;;0.30;99.90;;;;;;6179285;23;20020;-62
2021/03/13 02:29:08;;;;;;;51.70;27.02;;;0.30;99.90;;;;;;6182004;23;20031;-61
2021/03/13 02:31:37;;;;;;;53.15;25.75;;;0.30;99.90;;;;;;6178284;23;20088;-61
2021/03/13 02:34:05;;;;;;;53.72;25.95;;;0.30;99.90;;;;;;6177918;23;20032;-61
2021/03/13 02:36:42;;;;;;;52.05;26.42;;;0.30;99.90;;;;;;6178355;23;20037;-61
2021/03/13 02:39:11;;;;;;;51.13;25.98;;;0.30;99.90;;;;;;6178241;23;20025;-61
2021/03/13 02:41:49;;;;;;;54.00;25.98;;;0.30;99.90;;;;;;6176478;23;20063;-61
2021/03/13 02:44:19;;;;;;;44.13;26.23;;;0.30;99.90;;;;;;6181838;23;20052;-61
2021/03/13 02:46:53;;;;;;;52.40;26.38;;;0.30;99.90;;;;;;6179620;23;20055;-62
2021/03/13 02:49:26;;;;;;;50.05;25.20;;;0.30;99.90;;;;;;6178964;23;20028;-61
2021/03/13 02:52:01;;;;;;;49.60;25.17;;;0.30;99.90;;;;;;6178358;23;20430;-61
2021/03/13 02:54:31;;;;;;;53.75;26.92;;;0.30;99.90;;;;;;6181278;23;20025;-61
2021/03/13 02:57:00;;;;;;;49.63;25.10;;;0.40;99.90;;;;;;6180293;23;20025;-61
2021/03/13 02:59:28;;;;;;;46.60;23.23;;;0.40;99.90;;;;;;6177753;23;20092;-61
2021/03/13 03:01:56;;;;;;;46.40;24.15;;;0.30;99.90;;;;;;6178250;23;20021;-61
2021/03/13 03:04:24;;;;;;;44.50;21.25;;;0.40;99.90;;;;;;6179338;23;20467;-61
2021/03/13 03:06:53;;;;;;;46.67;22.73;;;0.30;99.90;;;;;;6177880;23;20104;-61
2021/03/13 03:09:22;;;;;;;41.33;20.65;;;0.30;99.90;;;;;;6177860;23;20029;-61
2021/03/13 03:11:55;;;;;;;42.38;20.45;;;0.30;99.90;;;;;;6177881;23;20124;-61
2021/03/13 03:14:23;;;;;;;40.88;21.15;;;0.30;99.90;;;;;;6178414;23;20025;-62
2021/03/13 03:16:58;;;;;;;45.03;22.42;;;0.20;99.90;;;;;;6182190;23;20021;-61
2021/03/13 03:19:33;;;;;;;44.97;20.95;;;0.20;99.90;;;;;;6177886;23;20103;-61
2021/03/13 03:22:07;;;;;;;35.03;18.90;;;0.10;99.90;;;;;;6178910;23;20032;-61
2021/03/13 03:24:33;;;;;;;40.88;19.27;;;0.10;99.90;;;;;;6177649;23;20059;-61
2021/03/13 03:27:00;;;;;;;37.58;17.95;;;0.10;99.90;;;;;;6183641;23;20021;-61
2021/03/13 03:29:28;;;;;;;43.53;18.98;;;0.20;99.90;;;;;;6181792;23;20820;-61
2021/03/13 03:31:56;;;;;;;36.75;18.75;;;0.10;99.90;;;;;;6177707;23;20092;-61
2021/03/13 03:34:22;;;;;;;42.90;17.70;;;0.10;99.90;;;;;;6177917;23;20430;-61
2021/03/13 03:36:52;;;;;;;36.88;18.23;;;0.10;99.90;;;;;;6178097;23;20028;-62
2021/03/13 03:39:19;;;;;;;35.40;16.95;;;0.10;99.90;;;;;;6179599;23;20024;-61
2021/03/13 03:41:50;;;;;;;33.05;18.50;;;0.10;99.90;;;;;;6181257;23;20028;-61
2021/03/13 03:44:21;;;;;;;41.72;19.05;;;0.00;99.90;;;;;;6179545;23;20025;-61
2021/03/13 03:46:59;;;;;;;35.72;18.92;;;-0.10;99.90;;;;;;6179277;23;20048;-61
2021/03/13 03:49:29;;;;;;;39.08;18.85;;;-0.10;99.90;;;;;;6184066;23;20462;-62
2021/03/13 03:52:10;;;;;;;36.75;17.58;;;-0.20;99.90;;;;;;6180049;23;20052;-61
2021/03/13 03:54:39;;;;;;;37.92;17.65;;;-0.20;99.90;;;;;;6181407;23;20059;-61
2021/03/13 03:57:09;;;;;;;34.97;18.20;;;-0.20;99.90;;;;;;6181409;23;20471;-61
2021/03/13 03:59:36;;;;;;;37.95;17.20;;;-0.20;99.90;;;;;;6181475;23;20041;-61
2021/03/13 04:02:03;;;;;;;36.03;18.35;;;-0.20;99.90;;;;;;6185107;23;20021;-61
2021/03/13 04:04:30;;;;;;;34.35;16.02;;;-0.10;99.90;;;;;;6181278;23;20100;-61
2021/03/13 04:06:58;;;;;;;34.35;15.02;;;-0.10;99.90;;;;;;6180908;23;20100;-61
2021/03/13 04:09:27;;;;;;;32.72;16.40;;;-0.10;99.90;;;;;;6181061;23;20044;-61
2021/03/13 04:11:54;;;;;;;40.53;17.40;;;-0.10;99.90;;;;;;6180861;23;20016;-61
2021/03/13 04:14:21;;;;;;;33.08;15.50;;;-0.10;99.90;;;;;;6180879;23;20052;-61
2021/03/13 04:16:49;;;;;;;30.42;15.07;;;-0.10;99.90;;;;;;6184020;23;20031;-61
2021/03/13 04:19:16;;;;;;;32.80;15.68;;;-0.10;99.90;;;;;;6180751;23;20404;-61
2021/03/13 04:21:42;;;;;;;35.53;15.55;;;0.00;99.90;;;;;;6181235;23;20057;-61
2021/03/13 04:24:13;;;;;;;28.20;15.30;;;-0.10;99.90;;;;;;6181157;23;20367;-62
2021/03/13 04:26:42;;;;;;;29.63;16.13;;;0.00;99.90;;;;;;6184856;23;20384;-61
2021/03/13 04:29:09;;;;;;;30.58;15.13;;;0.00;99.90;;;;;;6181152;23;20044;-61
2021/03/13 04:31:36;;;;;;;37.65;15.70;;;0.00;99.90;;;;;;6183696;23;20538;-61
2021/03/13 04:34:03;;;;;;;31.35;15.82;;;0.00;99.90;;;;;;6182468;23;20079;-61
2021/03/13 04:36:32;;;;;;;36.63;16.27;;;0.00;99.90;;;;;;6180657;23;20477;-61
2021/03/13 04:39:01;;;;;;;32.05;15.73;;;0.10;99.90;;;;;;6180653;23;20021;-61
2021/03/13 04:41:27;;;;;;;29.15;16.27;;;0.10;99.90;;;;;;6184515;23;20479;-61
2021/03/13 04:43:54;;;;;;;29.48;14.40;;;0.10;99.90;;;;;;6179297;23;20064;-61
2021/03/13 04:46:21;;;;;;;27.77;14.88;;;0.10;99.90;;;;;;6180730;23;20029;-61
2021/03/13 04:48:48;;;;;;;30.67;14.05;;;0.20;99.90;;;;;;6180679;23;20079;-61
2021/03/13 04:51:19;;;;;;;31.40;14.20;;;0.20;99.90;;;;;;6180391;23;20092;-62
2021/03/13 04:53:46;;;;;;;28.10;14.60;;;0.30;99.90;;;;;;6182970;23;20024;-61
2021/03/13 04:56:13;;;;;;;30.50;14.93;;;0.40;99.90;;;;;;6183772;23;20021;-61
2021/03/13 04:58:39;;;;;;;27.45;14.45;;;0.40;99.90;;;;;;6180542;23;20096;-61
2021/03/13 05:01:05;;;;;;;33.97;15.70;;;0.40;99.90;;;;;;6181328;23;20017;-62
2021/03/13 05:03:31;;;;;;;29.83;13.68;;;0.50;99.90;;;;;;6181011;23;20028;-61
2021/03/13 05:05:58;;;;;;;30.38;13.15;;;0.50;99.90;;;;;;6180209;23;20079;-61
2021/03/13 05:08:23;;;;;;;28.83;13.82;;;0.50;99.90;;;;;;6180872;23;20021;-61
2021/03/13 05:10:50;;;;;;;24.92;13.90;;;0.50;99.90;;;;;;6180274;23;20032;-61
2021/03/13 05:13:16;;;;;;;24.40;12.50;;;0.60;99.90;;;;;;6180336;23;20110;-61
2021/03/13 05:15:42;;;;;;;30.85;14.50;;;0.50;99.90;;;;;;6180701;23;20479;-61
2021/03/13 05:18:07;;;;;;;31.23;13.38;;;0.70;99.90;;;;;;6180662;23;20350;-61
2021/03/13 05:20:33;;;;;;;27.15;13.05;;;0.80;99.90;;;;;;6180383;23;20099;-62
2021/03/13 05:23:00;;;;;;;25.42;12.75;;;0.80;99.90;;;;;;6180335;23;20021;-62
2021/03/13 05:25:26;;;;;;;23.30;13.10;;;0.90;99.90;;;;;;6180279;23;20366;-61
2021/03/13 05:27:52;;;;;;;24.67;12.98;;;1.00;99.90;;;;;;6180207;23;20044;-61
2021/03/13 05:30:19;;;;;;;25.35;12.75;;;1.20;99.90;;;;;;6182452;23;20557;-61
2021/03/13 05:32:45;;;;;;;29.50;13.57;;;1.20;99.90;;;;;;6180320;23;20151;-61
2021/03/13 05:35:13;;;;;;;24.13;11.82;;;1.40;99.90;;;;;;6180050;23;20124;-62
2021/03/13 05:37:39;;;;;;;23.88;12.65;;;1.50;99.90;;;;;;6179693;23;20052;-62
2021/03/13 05:40:10;;;;;;;26.60;13.25;;;1.60;99.90;;;;;;6183734;23;20032;-61
2021/03/13 05:42:38;;;;;;;27.33;13.15;;;1.70;99.90;;;;;;6176631;23;20395;-61
2021/03/13 05:45:07;;;;;;;20.55;10.77;;;1.70;99.90;;;;;;6178730;23;20021;-61
2021/03/13 05:47:35;;;;;;;23.15;11.50;;;1.70;99.90;;;;;;6177152;23;20017;-59
2021/03/13 05:50:04;;;;;;;24.90;11.75;;;1.90;99.90;;;;;;6178114;23;20124;-60
2021/03/13 05:52:35;;;;;;;24.63;11.68;;;2.10;99.90;;;;;;6178726;23;20025;-60
2021/03/13 05:55:02;;;;;;;22.55;11.48;;;2.60;99.90;;;;;;6179294;23;20403;-62
2021/03/13 05:57:30;;;;;;;23.50;11.82;;;2.80;99.90;;;;;;6180106;23;20064;-61
2021/03/13 05:59:56;;;;;;;21.48;11.00;;;3.00;99.90;;;;;;6177437;23;20024;-63
2021/03/13 06:02:22;;;;;;;18.23;10.68;;;3.30;99.90;;;;;;6179845;23;20370;-62
2021/03/13 06:04:52;;;;;;;21.92;11.75;;;3.70;99.90;;;;;;6179607;23;20103;-60
2021/03/13 06:07:21;;;;;;;23.35;9.48;;;4.50;99.90;;;;;;6180214;23;20025;-60
2021/03/13 06:09:51;;;;;;;20.38;10.05;;;5.00;99.90;;;;;;6179654;23;20075;-61
2021/03/13 06:12:18;;;;;;;19.17;11.02;;;5.00;99.90;;;;;;6179571;23;20067;-63
2021/03/13 06:14:51;;;;;;;20.50;10.93;;;4.50;99.90;;;;;;6180323;23;20459;-62
2021/03/13 06:17:18;;;;;;;17.73;10.30;;;4.10;99.90;;;;;;6179824;23;20052;-64
2021/03/13 06:19:55;;;;;;;18.95;9.93;;;3.80;99.90;;;;;;6179286;23;20051;-62
2021/03/13 06:22:42;;;;;;;19.65;10.65;;;4.30;99.90;;;;;;6179941;23;20044;-61
2021/03/13 06:25:23;;;;;;;18.92;9.73;;;5.40;99.90;;;;;;6179892;23;20124;-63
2021/03/13 06:28:10;;;;;;;17.20;8.73;;;6.30;99.90;;;;;;6181016;23;20546;-62
2021/03/13 06:30:41;;;;;;;17.42;8.60;;;7.10;98.70;;;;;;6179465;23;20088;-62
2021/03/13 06:33:25;;;;;;;15.10;8.15;;;7.40;97.20;;;;;;6179910;23;20103;-63
2021/03/13 06:35:54;;;;;;;16.90;9.48;;;7.70;96.70;;;;;;6179759;23;20096;-63
2021/03/13 06:38:22;;;;;;;15.10;8.50;;;7.90;92.00;;;;;;6179922;23;20032;-62
2021/03/13 06:40:50;;;;;;;13.55;8.73;;;8.00;90.80;;;;;;6179478;23;20024;-64
2021/03/13 06:43:20;;;;;;;12.82;7.78;;;8.00;90.80;;;;;;6178871;23;20092;-61
2021/03/13 06:46:14;;;;;;;13.50;8.63;;;7.90;92.70;;;;;;6181863;23;20463;-61
2021/03/13 06:48:51;;;;;;;15.13;8.77;;;7.90;94.20;;;;;;6179355;23;20405;-62
2021/03/13 06:51:30;;;;;;;15.40;7.95;;;7.80;91.50;;;;;;6181567;23;20048;-62
2021/03/13 06:54:07;;;;;;;13.43;7.97;;;7.70;93.30;;;;;;6179099;23;20485;-63
2021/03/13 06:56:43;;;;;;;14.05;8.80;;;7.60;92.00;;;;;;6179582;23;20024;-63
2021/03/13 06:59:19;;;;;;;14.57;8.55;;;7.60;92.20;;;;;;6176651;23;20047;-65
2021/03/13 07:01:46;;;;;;;14.55;9.23;;;7.30;91.10;;;;;;6179164;23;20017;-68
2021/03/13 07:04:27;;;;;;;12.68;7.78;;;7.00;94.30;;;;;;6178698;23;20036;-70
2021/03/13 07:06:53;;;;;;;12.27;7.90;;;7.20;89.10;;;;;;6183268;23;20021;-66
2021/03/13 07:09:44;;;;;;;14.25;8.07;;;7.90;90.40;;;;;;6179400;23;20100;-63
2021/03/13 07:12:31;;;;;;;14.40;8.00;;;8.50;91.20;;;;;;6179292;23;20021;-66
2021/03/13 07:15:12;;;;;;;16.30;8.32;;;9.20;86.80;;;;;;6177278;23;20095;-70
2021/03/13 07:17:48;;;;;;;18.13;8.40;;;9.60;89.60;;;;;;6179240;23;20811;-64
2021/03/13 07:20:17;;;;;;;12.63;7.70;;;9.90;83.80;;;;;;6179510;23;20024;-65
2021/03/13 07:22:43;;;;;;;17.85;8.00;;;9.80;80.40;;;;;;6179173;23;20037;-71
2021/03/13 07:25:10;;;;;;;12.38;8.35;;;9.90;76.90;;;;;;6179257;23;20028;-71
2021/03/13 07:27:40;;;;;;;11.55;7.63;;;9.90;70.10;;;;;;6179617;23;20040;-75
2021/03/13 07:30:14;;;;;;;12.57;7.20;;;10.20;76.60;;;;;;6179344;23;20094;-73
2021/03/13 07:32:43;;;;;;;12.05;7.35;;;10.40;74.50;;;;;;6177926;23;20071;-70
2021/03/13 07:35:11;;;;;;;8.73;5.70;;;10.40;71.40;;;;;;6181807;23;20028;-68
2021/03/13 07:37:41;;;;;;;10.07;5.88;;;10.40;70.30;;;;;;6179310;23;20032;-70
2021/03/13 07:40:15;;;;;;;11.38;6.40;;;10.00;75.50;;;;;;6178954;23;20092;-66
2021/03/13 07:42:44;;;;;;;9.98;6.43;;;9.50;71.40;;;;;;6182065;23;20028;-64
2021/03/13 07:45:14;;;;;;;10.77;6.25;;;9.00;80.70;;;;;;6179212;23;20048;-64
2021/03/13 07:47:41;;;;;;;8.93;6.03;;;8.90;80.10;;;;;;6177573;23;20017;-65
2021/03/13 07:50:16;;;;;;;15.05;6.70;;;8.70;74.60;;;;;;6182136;23;20021;-64
2021/03/13 07:52:43;;;;;;;8.57;5.85;;;8.60;80.80;;;;;;6179320;23;20060;-64
2021/03/13 07:55:11;;;;;;;9.13;6.00;;;8.70;78.90;;;;;;6178898;23;20363;-66
2021/03/13 07:57:41;;;;;;;10.30;6.63;;;9.00;76.60;;;;;;6182478;23;20025;-63
2021/03/13 08:00:07;;;;;;;11.65;6.65;;;9.30;77.70;;;;;;6179158;23;20471;-63
2021/03/13 08:02:41;;;;;;;11.13;6.35;;;9.20;74.90;;;;;;6178648;23;20017;-62
2021/03/13 08:05:14;;;;;;;13.73;6.88;;;9.10;72.40;;;;;;6180264;23;20029;-63
2021/03/13 08:07:54;;;;;;;12.00;6.75;;;8.70;74.10;;;;;;6179475;23;20467;-63
2021/03/13 08:10:45;;;;;;;9.80;7.03;;;8.30;78.50;;;;;;6183104;23;20155;-63
2021/03/13 08:13:37;;;;;;;15.52;7.65;;;8.00;77.90;;;;;;6178923;23;20059;-63
2021/03/13 08:16:14;;;;;;;15.13;6.60;;;8.00;81.30;;;;;;6150330;23;20352;-63
2021/03/13 08:18:47;;;;;;;11.63;6.57;;;7.70;81.00;;;;;;6178696;23;20021;-63
2021/03/13 08:21:19;;;;;;;10.35;6.25;;;7.40;86.40;;;;;;6179337;23;20021;-63
2021/03/13 08:23:49;;;;;;;11.02;6.10;;;7.20;86.80;;;;;;6180361;23;20013;-63
2021/03/13 08:26:17;;;;;;;15.95;6.97;;;7.20;90.30;;;;;;6180924;23;20021;-63
2021/03/13 08:28:49;;;;;;;10.70;6.95;;;7.30;84.60;;;;;;6181179;23;20524;-63
2021/03/13 08:31:33;;;;;;;14.85;7.00;;;7.40;90.10;;;;;;6179863;23;20490;-64
2021/03/13 08:34:19;;;;;;;10.93;6.82;;;7.40;86.30;;;;;;6180198;23;20029;-63
2021/03/13 08:36:50;;;;;;;13.80;7.75;;;7.60;84.80;;;;;;6169982;23;20494;-65
2021/03/13 08:39:20;;;;;;;15.15;7.43;;;7.90;81.90;;;;;;6180486;23;20025;-64
2021/03/13 08:41:46;;;;;;;14.55;7.55;;;8.30;85.90;;;;;;6183359;23;20025;-63
2021/03/13 08:44:15;;;;;;;12.13;7.80;;;8.50;78.50;;;;;;6180703;23;20079;-64
2021/03/13 08:47:08;;;;;;;20.00;8.70;;;8.40;79.50;;;;;;6181006;23;20021;-64
2021/03/13 08:49:35;;;;;;;15.27;8.00;;;8.40;84.40;;;;;;6181108;23;20021;-64
2021/03/13 08:52:04;;;;;;;19.50;9.32;;;8.40;79.10;;;;;;6181644;23;20032;-64
2021/03/13 08:57:12;;;;;;;14.38;8.70;;;7.70;82.40;;;;;;6180874;23;20028;-64
2021/03/13 08:59:43;;;;;;;17.23;6.95;;;7.70;86.20;;;;;;6182789;23;20021;-64
2021/03/13 09:02:14;;;;;;;13.82;8.10;;;7.70;88.90;;;;;;6180882;23;20057;-64
2021/03/13 09:04:46;;;;;;;15.98;7.65;;;7.60;87.90;;;;;;6181546;23;20021;-64
2021/03/13 09:07:14;;;;;;;17.25;8.48;;;7.40;90.10;;;;;;6180905;23;20082;-64
2021/03/13 09:09:41;;;;;;;14.15;6.53;;;7.20;93.20;;;;;;6180836;23;20021;-64
2021/03/13 09:12:11;;;;;;;12.05;6.75;;;7.10;91.10;;;;;;6180668;23;20064;-64
2021/03/13 09:14:42;;;;;;;11.02;6.72;;;7.00;91.50;;;;;;6180931;23;20051;-64
2021/03/13 09:17:20;;;;;;;13.85;6.45;;;7.00;94.00;;;;;;6180691;23;20052;-64
2021/03/13 09:19:48;;;;;;;10.07;4.47;;;6.80;92.90;;;;;;6181132;23;20021;-64
2021/03/13 09:22:24;;;;;;;11.13;5.00;;;6.50;94.00;;;;;;6180850;23;20549;-64
2021/03/13 09:24:55;;;;;;;10.93;5.80;;;6.20;96.50;;;;;;6180619;23;20051;-64
2021/03/13 09:27:31;;;;;;;8.05;4.97;;;6.10;99.90;;;;;;6180409;23;20530;-64
2021/03/13 09:29:58;;;;;;;9.90;5.05;;;5.80;99.90;;;;;;6184245;23;20024;-63
2021/03/13 09:32:26;;;;;;;14.35;5.13;;;5.50;99.90;;;;;;6180694;23;20053;-63
2021/03/13 09:34:54;;;;;;;8.15;5.03;;;5.30;99.90;;;;;;6180749;23;20060;-63
2021/03/13 09:37:26;;;;;;;8.75;5.25;;;5.10;99.90;;;;;;6180460;23;20024;-63
2021/03/13 09:39:58;;;;;;;12.43;5.70;;;5.00;99.90;;;;;;6183850;23;20153;-63
2021/03/13 09:42:25;;;;;;;11.13;5.73;;;4.90;99.90;;;;;;6180417;23;20049;-63
2021/03/13 09:44:54;;;;;;;14.95;6.72;;;4.80;99.90;;;;;;6180454;23;20061;-63
2021/03/13 09:47:29;;;;;;;11.10;6.20;;;4.70;99.90;;;;;;6180406;23;20021;-63
2021/03/13 09:49:57;;;;;;;10.98;7.72;;;4.70;99.90;;;;;;6180129;23;20032;-63
2021/03/13 09:52:32;;;;;;;8.77;5.07;;;4.60;99.90;;;;;;6181852;23;20044;-63
2021/03/13 09:55:25;;;;;;;13.02;5.88;;;4.40;99.90;;;;;;6180178;23;20482;-63
2021/03/13 09:58:02;;;;;;;16.33;6.32;;;4.40;99.90;;;;;;6174274;23;20163;-63
2021/03/13 10:00:37;;;;;;;11.85;6.53;;;4.40;99.90;;;;;;6180660;23;20036;-63
2021/03/13 10:03:14;;;;;;;13.18;6.05;;;4.50;99.90;;;;;;6178479;23;20021;-63
2021/03/13 10:05:41;;;;;;;15.07;7.25;;;4.70;99.90;;;;;;6176441;23;20486;-66
2021/03/13 10:08:12;;;;;;;14.20;6.55;;;5.00;99.90;;;;;;6180792;23;20074;-67
2021/03/13 10:10:41;;;;;;;11.65;6.57;;;5.20;99.90;;;;;;6179235;23;20471;-66
2021/03/13 10:13:08;;;;;;;10.60;5.60;;;5.40;99.90;;;;;;6177513;23;20095;-66
2021/03/13 10:15:36;;;;;;;10.32;5.50;;;5.70;99.90;;;;;;6181624;23;20083;-67
2021/03/13 10:18:16;;;;;;;13.32;5.95;;;6.00;99.90;;;;;;6180429;23;20091;-68
2021/03/13 10:20:45;;;;;;;14.25;5.72;;;6.40;99.90;;;;;;6177584;23;20526;-68
2021/03/13 10:23:28;;;;;;;9.90;5.85;;;6.80;99.90;;;;;;6180963;23;20021;-68
2021/03/13 10:26:02;;;;;;;9.70;5.68;;;6.90;99.90;;;;;;6177393;23;20052;-70
2021/03/13 10:28:31;;;;;;;8.60;5.40;;;7.10;99.90;;;;;;6180875;23;20530;-65
2021/03/13 10:31:11;;;;;;;8.32;4.63;;;7.30;99.90;;;;;;6177152;23;20044;-63
2021/03/13 10:33:40;;;;;;;9.98;4.32;;;7.70;99.90;;;;;;6178142;23;20021;-64
2021/03/13 10:36:08;;;;;;;8.15;4.78;;;8.30;99.90;;;;;;6180018;23;20059;-63
2021/03/13 10:38:45;;;;;;;8.00;4.35;;;9.60;99.90;;;;;;6182020;23;20027;-65
2021/03/13 10:41:25;;;;;;;9.35;4.30;;;9.50;99.90;;;;;;6179650;23;20495;-66
2021/03/13 10:43:52;;;;;;;7.72;4.35;;;9.20;99.90;;;;;;6180130;23;20356;-65
2021/03/13 10:46:37;;;;;;;7.22;3.95;;;9.10;99.90;;;;;;6174693;23;20049;-66
2021/03/13 10:49:05;;;;;;;7.88;3.95;;;9.20;99.90;;;;;;6178488;23;20044;-70
2021/03/13 10:51:35;;;;;;;10.50;4.30;;;9.40;99.90;;;;;;6175342;23;20541;-65
2021/03/13 10:54:04;;;;;;;8.27;3.85;;;9.70;99.90;;;;;;6175343;23;20021;-65
2021/03/13 10:56:41;;;;;;;11.73;4.78;;;10.00;99.90;;;;;;6180253;23;20016;-65
2021/03/13 10:59:08;;;;;;;8.35;4.05;;;10.50;99.90;;;;;;6177049;23;20021;-65
2021/03/13 11:01:34;;;;;;;7.88;4.40;;;11.40;98.40;;;;;;6176608;23;20017;-66
2021/03/13 11:04:00;;;;;;;8.75;4.32;;;12.40;94.70;;;;;;6177275;23;20032;-73
2021/03/13 11:06:34;;;;;;;11.25;4.28;;;13.60;89.50;;;;;;6177325;23;20024;-72
2021/03/13 11:09:03;;;;;;;9.90;4.82;;;14.30;78.60;;;;;;6177508;23;20075;-71
2021/03/13 11:11:29;;;;;;;8.75;4.60;;;15.10;78.40;;;;;;6181399;23;20048;-70
2021/03/13 11:13:56;;;;;;;6.15;4.53;;;15.60;75.70;;;;;;6175498;23;20036;-71
2021/03/13 11:16:22;;;;;;;5.60;3.80;;;15.90;71.10;;;;;;6176370;23;20060;-68
2021/03/13 11:18:53;;;;;;;7.85;4.57;;;16.20;64.00;;;;;;6176659;23;20024;-72
2021/03/13 11:21:21;;;;;;;10.45;4.53;;;15.90;63.90;;;;;;6178961;23;20025;-70
2021/03/13 11:23:48;;;;;;;9.90;3.67;;;15.70;66.30;;;;;;6176847;23;20067;-67
2021/03/13 11:26:14;;;;;;;6.95;4.00;;;15.70;63.10;;;;;;6176416;23;20048;-66
2021/03/13 11:28:40;;;;;;;6.15;3.33;;;16.10;59.90;;;;;;6177131;23;20099;-72
2021/03/13 11:31:07;;;;;;;8.07;3.28;;;16.00;66.20;;;;;;6178438;23;20021;-66
2021/03/13 11:33:33;;;;;;;11.02;3.35;;;15.20;59.10;;;;;;6176328;23;20455;-66
2021/03/13 11:35:59;;;;;;;7.53;4.25;;;13.90;63.70;;;;;;6176724;23;20025;-66
2021/03/13 11:38:25;;;;;;;7.88;3.72;;;12.50;66.30;;;;;;6179610;23;20769;-65
2021/03/13 11:40:51;;;;;;;6.95;3.20;;;12.00;70.70;;;;;;6176572;23;20021;-64
2021/03/13 11:43:17;;;;;;;7.10;3.65;;;11.80;68.60;;;;;;6176851;23;20025;-64
2021/03/13 11:45:43;;;;;;;7.45;3.30;;;11.70;70.40;;;;;;6175341;23;20057;-65
2021/03/13 11:48:09;;;;;;;7.57;3.60;;;11.40;72.30;;;;;;6179281;23;20025;-63
2021/03/13 11:50:36;;;;;;;6.70;3.58;;;11.30;72.20;;;;;;6176111;23;20021;-68
2021/03/13 11:53:02;;;;;;;6.18;3.63;;;11.90;76.00;;;;;;6178136;23;20025;-67
2021/03/13 11:55:28;;;;;;;5.85;3.53;;;12.10;72.50;;;;;;6182763;23;20336;-69
2021/03/13 11:57:54;;;;;;;8.57;4.13;;;12.30;68.30;;;;;;6182045;23;20027;-68
2021/03/13 12:00:21;;;;;;;6.78;3.78;;;12.40;70.40;;;;;;6179692;23;20052;-71
2021/03/13 12:02:47;;;;;;;7.43;3.35;;;12.50;71.20;;;;;;6179676;23;20025;-70
2021/03/13 12:05:13;;;;;;;8.02;3.40;;;12.50;70.50;;;;;;6184210;23;20410;-70
2021/03/13 12:07:40;;;;;;;4.93;3.45;;;12.40;71.40;;;;;;6181107;23;20053;-71
2021/03/13 12:10:09;;;;;;;8.95;4.00;;;12.30;66.70;;;;;;6180722;23;20736;-69
2021/03/13 12:12:36;;;;;;;7.80;4.10;;;12.10;67.00;;;;;;6185016;23;20025;-70
2021/03/13 12:15:04;;;;;;;10.23;4.38;;;12.00;67.40;;;;;;6179803;23;20025;-69
2021/03/13 12:17:30;;;;;;;8.52;3.22;;;12.00;68.00;;;;;;6179763;23;20036;-70
2021/03/13 12:19:56;;;;;;;9.77;4.15;;;12.10;71.70;;;;;;6181383;23;20025;-70
2021/03/13 12:22:26;;;;;;;7.53;3.17;;;12.30;68.70;;;;;;6179394;23;20388;-70
2021/03/13 12:24:52;;;;;;;7.22;2.58;;;12.60;68.90;;;;;;6182643;23;20021;-67
2021/03/13 12:27:19;;;;;;;5.60;2.38;;;12.70;65.50;;;;;;6181114;23;20090;-68
2021/03/13 12:29:46;;;;;;;6.80;2.72;;;12.50;68.70;;;;;;6181169;23;20044;-68
2021/03/13 12:32:12;;;;;;;2.85;1.75;;;12.50;67.60;;;;;;6181155;23;20025;-67
2021/03/13 12:34:38;;;;;;;4.38;2.28;;;12.50;67.30;;;;;;6181062;23;20028;-69
2021/03/13 12:37:04;;;;;;;6.35;2.28;;;12.50;65.90;;;;;;6180953;23;20088;-66
2021/03/13 12:39:30;;;;;;;3.53;2.13;;;12.50;67.30;;;;;;6183958;23;20025;-67
2021/03/13 12:41:57;;;;;;;3.35;1.95;;;12.70;63.40;;;;;;6180773;23;20044;-66
2021/03/13 12:44:23;;;;;;;1.52;1.42;;;12.40;62.90;;;;;;6180669;23;20036;-64
2021/03/13 12:46:49;;;;;;;2.45;2.08;;;12.30;62.80;;;;;;6182388;23;20633;-67
2021/03/13 12:49:15;;;;;;;3.08;1.77;;;12.20;64.70;;;;;;6184038;23;20045;-71
2021/03/13 12:51:41;;;;;;;7.43;2.60;;;12.10;64.30;;;;;;6182335;23;20047;-70
2021/03/13 12:54:07;;;;;;;6.80;3.42;;;12.20;65.40;;;;;;6176828;23;20025;-71
2021/03/13 12:56:33;;;;;;;10.10;3.92;;;12.30;63.70;;;;;;6176916;23;20048;-69
2021/03/13 12:58:59;;;;;;;9.90;2.80;;;12.50;66.10;;;;;;6177902;23;20458;-69